createdAt,value
2022-12-17T00:00:00.829Z,-2.2
2022-12-17T00:03:00.972Z,-2.2
2022-12-17T00:06:00.705Z,-2.2
2022-12-17T00:09:00.753Z,-2.2
2022-12-17T00:12:00.750Z,-2.2
2022-12-17T00:15:00.762Z,-2.2
2022-12-17T00:18:00.721Z,-2.2
2022-12-17T00:21:00.714Z,-2.2
2022-12-17T00:24:00.717Z,-2.2
2022-12-17T00:27:00.751Z,-2.2
2022-12-17T00:30:00.780Z,-2.2
2022-12-17T00:33:00.726Z,-2.2
2022-12-17T00:36:00.716Z,-2.2
2022-12-17T00:39:00.884Z,-2.2
2022-12-17T00:42:00.767Z,-2.2
2022-12-17T00:45:00.769Z,-2.2
2022-12-17T00:48:00.756Z,-2.2
2022-12-17T00:51:00.746Z,-2.2
2022-12-17T00:54:00.759Z,-2.2
2022-12-17T00:57:00.734Z,-2.3
2022-12-17T01:00:00.840Z,-2.3
2022-12-17T01:03:00.832Z,-2.3
2022-12-17T01:06:00.742Z,-2.3
2022-12-17T01:09:00.747Z,-2.3
2022-12-17T01:12:00.743Z,-2.3
2022-12-17T01:15:00.725Z,-2.3
2022-12-17T01:18:00.783Z,-2.3
2022-12-17T01:21:00.736Z,-2.3
2022-12-17T01:24:00.717Z,-2.3
2022-12-17T01:27:00.759Z,-2.3
2022-12-17T01:30:00.761Z,-2.4
2022-12-17T01:33:00.766Z,-2.4
2022-12-17T01:36:00.727Z,-2.4
2022-12-17T01:39:00.711Z,-2.4
2022-12-17T01:42:00.763Z,-2.4
2022-12-17T01:45:00.750Z,-2.4
2022-12-17T01:48:00.711Z,-2.4
2022-12-17T01:51:00.760Z,-2.4
2022-12-17T01:54:00.788Z,-2.4
2022-12-17T01:57:00.728Z,-2.4
2022-12-17T02:00:00.792Z,-2.4
2022-12-17T02:03:01.039Z,-2.3
2022-12-17T02:06:00.732Z,-2.3
2022-12-17T02:09:00.728Z,-2.3
2022-12-17T02:12:00.750Z,-2.3
2022-12-17T02:15:00.767Z,-2.3
2022-12-17T02:18:00.754Z,-2.3
2022-12-17T02:21:00.722Z,-2.3
2022-12-17T02:24:00.758Z,-2.3
2022-12-17T02:27:00.707Z,-2.3
2022-12-17T02:30:00.741Z,-2.3
2022-12-17T02:33:00.722Z,-2.3
2022-12-17T02:36:00.780Z,-2.3
2022-12-17T02:39:00.749Z,-2.3
2022-12-17T02:42:00.760Z,-2.3
2022-12-17T02:45:00.751Z,-2.3
2022-12-17T02:48:00.730Z,-2.3
2022-12-17T02:51:00.711Z,-2.4
2022-12-17T02:54:00.763Z,-2.4
2022-12-17T02:57:00.765Z,-2.4
2022-12-17T03:00:00.780Z,-2.4
2022-12-17T03:03:00.856Z,-2.4
2022-12-17T03:06:00.802Z,-2.4
2022-12-17T03:09:00.747Z,-2.4
2022-12-17T03:12:00.756Z,-2.4
2022-12-17T03:15:00.751Z,-2.4
2022-12-17T03:18:00.844Z,-2.4
2022-12-17T03:21:00.718Z,-2.4
2022-12-17T03:24:00.739Z,-2.4
2022-12-17T03:27:00.746Z,-2.4
2022-12-17T03:30:00.819Z,-2.4
2022-12-17T03:33:00.720Z,-2.4
2022-12-17T03:36:00.788Z,-2.4
2022-12-17T03:39:00.788Z,-2.4
2022-12-17T03:42:00.733Z,-2.4
2022-12-17T03:45:00.753Z,-2.4
2022-12-17T03:48:00.748Z,-2.4
2022-12-17T03:51:00.748Z,-2.4
2022-12-17T03:54:00.735Z,-2.4
2022-12-17T03:57:00.745Z,-2.4
2022-12-17T04:00:00.704Z,-2.4
2022-12-17T04:03:01.042Z,-2.4
2022-12-17T04:06:00.725Z,-2.4
2022-12-17T04:09:00.748Z,-2.4
2022-12-17T04:12:00.742Z,-2.4
2022-12-17T04:15:00.756Z,-2.4
2022-12-17T04:18:00.716Z,-2.4
2022-12-17T04:21:00.760Z,-2.4
2022-12-17T04:24:00.789Z,-2.4
2022-12-17T04:27:00.725Z,-2.4
2022-12-17T04:30:00.852Z,-2.4
2022-12-17T04:33:00.734Z,-2.4
2022-12-17T04:36:00.769Z,-2.3
2022-12-17T04:39:00.781Z,-2.4
2022-12-17T04:42:00.746Z,-2.4
2022-12-17T04:45:00.728Z,-2.4
2022-12-17T04:48:00.750Z,-2.4
2022-12-17T04:51:00.717Z,-2.4
2022-12-17T04:54:00.761Z,-2.4
2022-12-17T04:57:00.730Z,-2.4
2022-12-17T05:00:00.808Z,-2.4
2022-12-17T05:03:01.031Z,-2.4
2022-12-17T05:06:00.849Z,-2.4
2022-12-17T05:09:00.722Z,-2.3
2022-12-17T05:12:00.706Z,-2.3
2022-12-17T05:15:00.774Z,-2.3
2022-12-17T05:18:00.754Z,-2.3
2022-12-17T05:21:00.733Z,-2.3
2022-12-17T05:24:00.744Z,-2.3
2022-12-17T05:27:00.743Z,-2.3
2022-12-17T05:30:00.722Z,-2.3
2022-12-17T05:33:00.759Z,-2.3
2022-12-17T05:36:00.717Z,-2.3
2022-12-17T05:39:00.737Z,-2.3
2022-12-17T05:42:00.771Z,-2.3
2022-12-17T05:45:00.750Z,-2.3
2022-12-17T05:48:00.705Z,-2.3
2022-12-17T05:51:00.743Z,-2.3
2022-12-17T05:54:00.735Z,-2.3
2022-12-17T05:57:00.764Z,-2.3
2022-12-17T06:00:00.818Z,-2.3
2022-12-17T06:03:00.982Z,-2.3
2022-12-17T06:06:00.755Z,-2.3
2022-12-17T06:09:00.739Z,-2.3
2022-12-17T06:12:03.214Z,-2.3
2022-12-17T06:15:00.723Z,-2.3
2022-12-17T06:18:00.921Z,-2.3
2022-12-17T06:21:00.734Z,-2.3
2022-12-17T06:24:00.750Z,-2.3
2022-12-17T06:27:00.835Z,-2.3
2022-12-17T06:30:00.781Z,-2.3
2022-12-17T06:33:00.717Z,-2.3
2022-12-17T06:36:00.723Z,-2.3
2022-12-17T06:39:00.716Z,-2.3
2022-12-17T06:42:04.918Z,-2.3
2022-12-17T06:45:00.712Z,-2.3
2022-12-17T06:48:00.703Z,-2.2
2022-12-17T06:51:00.741Z,-2.2
2022-12-17T06:54:00.719Z,-2.2
2022-12-17T06:57:00.869Z,-2.2
2022-12-17T07:00:00.792Z,-2.2
2022-12-17T07:03:00.834Z,-2.2
2022-12-17T07:06:00.716Z,-2.2
2022-12-17T07:09:00.758Z,-2.2
2022-12-17T07:12:01.103Z,-2.2
2022-12-17T07:15:00.784Z,-2.2
2022-12-17T07:18:00.721Z,-2.2
2022-12-17T07:21:00.717Z,-2.2
2022-12-17T07:24:00.864Z,-2.2
2022-12-17T07:27:00.867Z,-2.2
2022-12-17T07:30:00.843Z,-2.2
2022-12-17T07:33:00.752Z,-2.2
2022-12-17T07:36:00.783Z,-2.2
2022-12-17T07:39:00.748Z,-2.2
2022-12-17T07:42:00.849Z,-2.2
2022-12-17T07:45:00.810Z,-2.2
2022-12-17T07:48:00.790Z,-2.2
2022-12-17T07:51:00.866Z,-2.2
2022-12-17T07:54:00.821Z,-2.2
2022-12-17T07:57:01.067Z,-2.2
2022-12-17T08:00:00.917Z,-2.2
2022-12-17T08:03:00.939Z,-2.2
2022-12-17T08:06:00.805Z,-2.2
2022-12-17T08:09:00.833Z,-2.2
2022-12-17T08:12:01.110Z,-2.2
2022-12-17T08:15:00.810Z,-2.2
2022-12-17T08:18:00.828Z,-2.2
2022-12-17T08:21:00.805Z,-2.2
2022-12-17T08:24:00.838Z,-2.2
2022-12-17T08:27:01.057Z,-2.2
2022-12-17T08:30:00.825Z,-2.2
2022-12-17T08:33:00.840Z,-2.2
2022-12-17T08:36:00.795Z,-2.2
2022-12-17T08:39:00.766Z,-2.2
2022-12-17T08:42:04.823Z,-2.2
2022-12-17T08:45:00.819Z,-2.2
2022-12-17T08:48:04.472Z,-2.2
2022-12-17T08:51:00.799Z,-2.2
2022-12-17T08:54:00.854Z,-2.2
2022-12-17T08:57:00.801Z,-2.2
2022-12-17T09:00:00.839Z,-2
2022-12-17T09:03:00.882Z,-2
2022-12-17T09:06:00.784Z,-2
2022-12-17T09:09:00.785Z,-2
2022-12-17T09:12:00.814Z,-2
2022-12-17T09:15:00.763Z,-2
2022-12-17T09:18:00.805Z,-1.8
2022-12-17T09:21:00.801Z,-1.8
2022-12-17T09:24:00.798Z,-1.8
2022-12-17T09:27:00.789Z,-1.8
2022-12-17T09:30:00.870Z,-1.8
2022-12-17T09:33:00.833Z,-1.6
2022-12-17T09:36:00.836Z,-1.6
2022-12-17T09:39:00.811Z,-1.6
2022-12-17T09:42:00.846Z,-1.6
2022-12-17T09:45:00.805Z,-1.6
2022-12-17T09:48:00.777Z,-1.6
2022-12-17T09:51:00.782Z,-1.6
2022-12-17T09:54:00.787Z,-1.6
2022-12-17T09:57:00.824Z,-1.6
2022-12-17T10:00:00.888Z,-1.6
2022-12-17T10:03:01.042Z,-1.4
2022-12-17T10:06:00.794Z,-1.4
2022-12-17T10:09:00.839Z,-1.3
2022-12-17T10:12:00.857Z,-1.3
2022-12-17T10:15:00.776Z,-1.3
2022-12-17T10:18:00.834Z,-1.3
2022-12-17T10:21:00.945Z,-1.3
2022-12-17T10:24:00.809Z,-1.3
2022-12-17T10:27:00.849Z,-1.3
2022-12-17T10:30:00.897Z,-1.3
2022-12-17T10:33:00.899Z,-1.3
2022-12-17T10:36:00.852Z,-1.3
2022-12-17T10:39:00.802Z,-1.3
2022-12-17T10:42:00.798Z,-1.3
2022-12-17T10:45:00.814Z,-0.9
2022-12-17T10:48:00.792Z,-0.9
2022-12-17T10:51:00.791Z,-0.9
2022-12-17T10:54:00.825Z,-0.9
2022-12-17T10:57:00.786Z,-0.9
2022-12-17T11:00:00.853Z,-0.8
2022-12-17T11:03:01.253Z,-0.8
2022-12-17T11:06:00.886Z,-0.8
2022-12-17T11:09:00.978Z,-0.8
2022-12-17T11:12:07.502Z,-0.8
2022-12-17T11:15:00.817Z,-0.8
2022-12-17T11:18:00.874Z,-0.8
2022-12-17T11:21:00.777Z,-0.8
2022-12-17T11:24:00.826Z,-0.8
2022-12-17T11:27:00.920Z,-0.4
2022-12-17T11:30:00.890Z,-0.4
2022-12-17T11:33:00.804Z,-0.4
2022-12-17T11:36:00.810Z,-0.4
2022-12-17T11:39:00.911Z,-0.4
2022-12-17T11:42:00.802Z,-0.4
2022-12-17T11:45:00.766Z,-0.4
2022-12-17T11:48:00.788Z,-0.4
2022-12-17T11:51:00.776Z,0.1
2022-12-17T11:54:00.795Z,0.1
2022-12-17T11:57:00.769Z,0.1
2022-12-17T12:00:04.752Z,0.1
2022-12-17T12:03:01.127Z,0.1
2022-12-17T12:06:00.770Z,0.1
2022-12-17T12:09:00.863Z,0.1
2022-12-17T12:12:00.796Z,0.1
2022-12-17T12:15:00.742Z,0.1
2022-12-17T12:18:00.818Z,0.1
2022-12-17T12:21:00.769Z,0.1
2022-12-17T12:24:00.759Z,0.1
2022-12-17T12:27:00.803Z,0.1
2022-12-17T12:30:00.934Z,0.1
2022-12-17T12:33:08.404Z,0.1
2022-12-17T12:36:00.808Z,0.1
2022-12-17T12:39:00.777Z,0.1
2022-12-17T12:42:00.908Z,0.1
2022-12-17T12:45:00.779Z,0.1
2022-12-17T12:48:00.816Z,0.1
2022-12-17T12:51:00.757Z,0.1
2022-12-17T12:54:00.742Z,0.1
2022-12-17T12:57:00.761Z,0.1
2022-12-17T13:00:00.833Z,0.4
2022-12-17T13:03:01.091Z,0.4
2022-12-17T13:06:00.788Z,0.4
2022-12-17T13:09:00.835Z,0.4
2022-12-17T13:12:00.777Z,0.4
2022-12-17T13:15:00.829Z,0.6
2022-12-17T13:18:00.808Z,0.6
2022-12-17T13:21:00.818Z,0.6
2022-12-17T13:24:00.860Z,0.6
2022-12-17T13:27:00.776Z,0.6
2022-12-17T13:30:00.841Z,0.6
2022-12-17T13:33:00.790Z,0.6
2022-12-17T13:36:00.805Z,0.6
2022-12-17T13:39:00.892Z,0.6
2022-12-17T13:42:00.887Z,0.6
2022-12-17T13:45:00.837Z,0.6
2022-12-17T13:48:00.839Z,0.6
2022-12-17T13:51:00.764Z,0.8
2022-12-17T13:54:00.773Z,0.8
2022-12-17T13:57:00.772Z,0.8
2022-12-17T14:00:00.820Z,0.8
2022-12-17T14:03:00.913Z,0.8
2022-12-17T14:06:00.890Z,0.8
2022-12-17T14:09:00.845Z,0.7
2022-12-17T14:12:00.816Z,0.7
2022-12-17T14:15:00.842Z,0.7
2022-12-17T14:18:00.846Z,0.7
2022-12-17T14:21:00.759Z,0.7
2022-12-17T14:24:00.767Z,0.7
2022-12-17T14:27:00.814Z,0.7
2022-12-17T14:30:00.827Z,0.7
2022-12-17T14:33:00.747Z,0.7
2022-12-17T14:36:00.835Z,0.5
2022-12-17T14:39:00.749Z,0.5
2022-12-17T14:42:00.762Z,0.5
2022-12-17T14:45:00.784Z,0.4
2022-12-17T14:48:00.841Z,0.4
2022-12-17T14:51:00.814Z,0.4
2022-12-17T14:54:00.782Z,0.4
2022-12-17T14:57:00.786Z,0.4
2022-12-17T15:00:00.818Z,0.4
2022-12-17T15:03:01.237Z,0.4
2022-12-17T15:06:00.812Z,0.4
2022-12-17T15:09:00.778Z,0.4
2022-12-17T15:12:00.883Z,0.4
2022-12-17T15:15:00.734Z,0.4
2022-12-17T15:18:00.712Z,0
2022-12-17T15:21:00.718Z,0
2022-12-17T15:24:00.761Z,0
2022-12-17T15:27:00.760Z,0
2022-12-17T15:30:00.917Z,0
2022-12-17T15:33:00.716Z,0
2022-12-17T15:36:00.724Z,0
2022-12-17T15:39:00.746Z,0
2022-12-17T15:42:00.740Z,-0.3
2022-12-17T15:45:00.719Z,-0.3
2022-12-17T15:48:00.751Z,-0.3
2022-12-17T15:51:00.697Z,-0.3
2022-12-17T15:54:00.745Z,-0.3
2022-12-17T15:57:00.738Z,-0.3
2022-12-17T16:00:00.804Z,-0.3
2022-12-17T16:03:01.045Z,-0.3
2022-12-17T16:06:00.731Z,-0.3
2022-12-17T16:09:00.760Z,-0.3
2022-12-17T16:12:00.771Z,-0.9
2022-12-17T16:15:00.753Z,-0.9
2022-12-17T16:18:00.731Z,-0.9
2022-12-17T16:21:00.712Z,-0.9
2022-12-17T16:24:00.796Z,-0.9
2022-12-17T16:27:04.876Z,-0.9
2022-12-17T16:30:00.814Z,-0.9
2022-12-17T16:33:00.723Z,-0.9
2022-12-17T16:36:00.810Z,-0.9
2022-12-17T16:39:00.745Z,-1.4
2022-12-17T16:42:00.719Z,-1.4
2022-12-17T16:45:00.764Z,-1.4
2022-12-17T16:48:00.754Z,-1.4
2022-12-17T16:51:00.730Z,-1.4
2022-12-17T16:54:00.767Z,-1.4
2022-12-17T16:57:00.722Z,-1.4
2022-12-17T17:00:00.757Z,-1.4
2022-12-17T17:03:00.975Z,-1.4
2022-12-17T17:06:00.833Z,-1.9
2022-12-17T17:09:00.795Z,-1.9
2022-12-17T17:12:00.778Z,-1.9
2022-12-17T17:15:00.725Z,-1.9
2022-12-17T17:18:02.335Z,-1.9
2022-12-17T17:21:00.742Z,-1.9
2022-12-17T17:24:00.753Z,-1.9
2022-12-17T17:27:00.744Z,-1.9
2022-12-17T17:30:04.150Z,-1.9
2022-12-17T17:33:00.705Z,-1.9
2022-12-17T17:36:04.302Z,-1.9
2022-12-17T17:39:00.740Z,-2.4
2022-12-17T17:42:00.847Z,-2.4
2022-12-17T17:45:00.766Z,-2.4
2022-12-17T17:48:00.753Z,-2.4
2022-12-17T17:51:00.731Z,-2.4
2022-12-17T17:54:00.764Z,-2.4
2022-12-17T17:57:00.757Z,-2.7
2022-12-17T18:00:00.882Z,-2.7
2022-12-17T18:03:01.073Z,-2.7
2022-12-17T18:06:00.736Z,-2.7
2022-12-17T18:09:00.801Z,-2.7
2022-12-17T18:12:00.793Z,-2.7
2022-12-17T18:15:17.944Z,-2.7
2022-12-17T18:18:00.747Z,-2.7
2022-12-17T18:21:00.784Z,-2.7
2022-12-17T18:24:00.799Z,-3
2022-12-17T18:27:00.768Z,-3
2022-12-17T18:30:00.902Z,-3
2022-12-17T18:33:00.766Z,-3
2022-12-17T18:36:01.251Z,-3
2022-12-17T18:39:00.773Z,-3
2022-12-17T18:42:01.501Z,-3.2
2022-12-17T18:45:01.085Z,-3.2
2022-12-17T18:48:00.754Z,-3.2
2022-12-17T18:51:03.121Z,-3.2
2022-12-17T18:54:00.790Z,-3.2
2022-12-17T18:57:02.728Z,-3.2
2022-12-17T19:00:01.608Z,-3.5
2022-12-17T19:03:00.913Z,-3.5
2022-12-17T19:06:00.774Z,-3.5
2022-12-17T19:09:00.755Z,-3.6
2022-12-17T19:12:00.717Z,-3.6
2022-12-17T19:15:00.763Z,-3.6
2022-12-17T19:18:00.831Z,-3.6
2022-12-17T19:21:00.750Z,-3.6
2022-12-17T19:24:00.724Z,-3.6
2022-12-17T19:27:00.857Z,-3.6
2022-12-17T19:30:00.740Z,-3.6
2022-12-17T19:33:00.726Z,-3.6
2022-12-17T19:36:00.715Z,-4
2022-12-17T19:39:00.743Z,-4
2022-12-17T19:42:00.789Z,-4.1
2022-12-17T19:45:00.747Z,-4.1
2022-12-17T19:48:00.738Z,-4.1
2022-12-17T19:51:00.763Z,-4.1
2022-12-17T19:54:09.015Z,-4.1
2022-12-17T19:57:00.780Z,-4.1
2022-12-17T20:00:00.784Z,-4.1
2022-12-17T20:03:01.017Z,-4.1
2022-12-17T20:06:00.760Z,-4.1
2022-12-17T20:09:00.737Z,-4.1
2022-12-17T20:12:00.796Z,-4.1
2022-12-17T20:15:00.770Z,-4.6
2022-12-17T20:18:00.722Z,-4.6
2022-12-17T20:21:00.752Z,-4.6
2022-12-17T20:24:00.783Z,-4.6
2022-12-17T20:27:00.753Z,-4.6
2022-12-17T20:30:00.748Z,-4.6
2022-12-17T20:33:00.733Z,-4.7
2022-12-17T20:36:00.720Z,-4.7
2022-12-17T20:39:00.764Z,-4.7
2022-12-17T20:42:00.786Z,-4.7
2022-12-17T20:45:00.730Z,-4.7
2022-12-17T20:48:00.740Z,-4.7
2022-12-17T20:51:00.759Z,-4.7
2022-12-17T20:54:00.716Z,-4.7
2022-12-17T20:57:00.716Z,-4.7
2022-12-17T21:00:00.842Z,-5.1
2022-12-17T21:03:01.054Z,-5.1
2022-12-17T21:06:00.770Z,-5.1
2022-12-17T21:09:00.698Z,-5.1
2022-12-17T21:12:00.730Z,-5.1
2022-12-17T21:15:00.786Z,-5.3
2022-12-17T21:18:00.782Z,-5.3
2022-12-17T21:21:00.754Z,-5.3
2022-12-17T21:24:00.727Z,-5.3
2022-12-17T21:27:00.781Z,-5.5
2022-12-17T21:30:00.809Z,-5.4
2022-12-17T21:33:00.747Z,-5.4
2022-12-17T21:36:00.751Z,-5.4
2022-12-17T21:39:00.739Z,-5.4
2022-12-17T21:42:00.729Z,-5.4
2022-12-17T21:45:01.225Z,-5.4
2022-12-17T21:48:00.775Z,-5.4
2022-12-17T21:51:00.733Z,-5.4
2022-12-17T21:54:00.745Z,-5.4
2022-12-17T21:57:00.734Z,-5.4
2022-12-17T22:00:00.982Z,-5.4
2022-12-17T22:03:00.922Z,-5.4
2022-12-17T22:06:00.947Z,-5.4
2022-12-17T22:09:08.321Z,-5.4
2022-12-17T22:12:00.817Z,-5.8
2022-12-17T22:15:00.733Z,-5.8
2022-12-17T22:18:00.764Z,-5.8
2022-12-17T22:21:00.778Z,-5.8
2022-12-17T22:24:00.740Z,-5.8
2022-12-17T22:27:00.718Z,-6
2022-12-17T22:30:00.746Z,-6
2022-12-17T22:33:01.472Z,-6
2022-12-17T22:45:10.146Z,-6.3
2022-12-17T22:48:00.720Z,-6.3
2022-12-17T22:51:10.083Z,-6.3
2022-12-17T22:54:00.708Z,-6.3
2022-12-17T22:57:28.009Z,-6.3
2022-12-17T23:00:01.585Z,-6.3
2022-12-17T23:03:00.981Z,-6.3
2022-12-17T23:06:00.760Z,-6.3
2022-12-17T23:09:00.773Z,-6.3
2022-12-17T23:12:00.738Z,-6.3
2022-12-17T23:15:00.746Z,-6.3
2022-12-17T23:18:00.819Z,-6.8
2022-12-17T23:21:00.721Z,-6.8
2022-12-17T23:24:00.746Z,-6.8
2022-12-17T23:27:00.781Z,-6.8
2022-12-17T23:30:00.762Z,-6.8
2022-12-17T23:33:00.755Z,-6.8
2022-12-17T23:36:00.743Z,-6.8
2022-12-17T23:39:00.909Z,-6.8
2022-12-17T23:42:00.772Z,-6.8
2022-12-17T23:45:00.742Z,-6.8
2022-12-17T23:48:00.740Z,-6.8
2022-12-17T23:51:00.738Z,-6.8
2022-12-17T23:54:00.756Z,-6.8
2022-12-17T23:57:00.753Z,-6.8
